Time;durP1;ratioP1;P1;durP2;ratioP2;P2;SDS_P1;SDS_P2;PMS_P1;PMS_P2;Temp;Humidity;BMP_temperature;BMP_pressure;BME280_temperature;BME280_humidity;BME280_pressure;Samples;Min_cycle;Max_cycle;Signal;HPM_P1;HPM_P2
2022/12/22 03:25:54;;;;;;;22.90;9.93;;;8.00;99.90;;;;;;5031900;28;20028;-48
2022/12/22 03:28:27;;;;;;;22.95;9.55;;;8.00;99.90;;;;;;5031745;28;20029;-43
2022/12/22 03:30:57;;;;;;;26.17;9.55;;;8.10;99.90;;;;;;5031709;28;20120;-43
2022/12/22 03:33:22;;;;;;;;;;;8.20;99.90;;;;;;5032079;28;20128;-43
2022/12/22 03:35:48;;;;;;;30.02;9.88;;;8.20;99.90;;;;;;5031306;28;19959;-46
2022/12/22 03:38:14;;;;;;;46.88;10.02;;;8.20;99.90;;;;;;5030881;28;20041;-43
2022/12/22 03:40:39;;;;;;;25.27;8.80;;;8.20;99.90;;;;;;5030791;28;20125;-43
2022/12/22 03:49:10;;;;;;;29.58;8.60;;;8.20;99.90;;;;;;5029100;28;20404;-44
2022/12/22 03:51:46;;;;;;;43.30;8.93;;;8.20;99.90;;;;;;5019224;28;20041;-43
2022/12/22 03:54:16;;;;;;;26.25;8.38;;;8.10;99.90;;;;;;5031028;28;20038;-43
2022/12/22 03:56:42;;;;;;;51.13;9.75;;;8.10;99.90;;;;;;5031373;28;20029;-43
2022/12/22 03:59:09;;;;;;;26.42;8.73;;;8.10;99.90;;;;;;5031354;28;20500;-42
2022/12/22 04:01:39;;;;;;;53.67;8.48;;;8.10;99.90;;;;;;5030885;28;20055;-43
2022/12/22 04:04:05;;;;;;;40.58;7.45;;;8.00;99.90;;;;;;5031141;28;20021;-51
2022/12/22 04:06:30;;;;;;;38.50;6.85;;;8.00;99.90;;;;;;5030910;28;20079;-51
2022/12/22 04:08:56;;;;;;;40.60;6.63;;;8.00;99.90;;;;;;5029031;28;20397;-53
2022/12/22 04:14:06;;;;;;;38.08;6.75;;;7.90;99.90;;;;;;5026842;28;20033;-45
2022/12/22 04:16:31;;;;;;;39.53;5.97;;;7.90;99.90;;;;;;5025207;28;20029;-43
2022/12/22 04:18:57;;;;;;;30.35;6.55;;;7.80;99.90;;;;;;5021867;28;20017;-46
2022/12/22 04:21:24;;;;;;;15.57;5.15;;;7.80;99.90;;;;;;5057710;28;20040;-43
2022/12/22 04:23:50;;;;;;;14.73;5.53;;;7.80;99.90;;;;;;5021209;28;20083;-57
2022/12/22 04:26:19;;;;;;;17.00;5.43;;;7.90;99.90;;;;;;5017180;28;20068;-45
2022/12/22 04:28:45;;;;;;;23.10;5.55;;;7.90;99.90;;;;;;5054327;28;20456;-50
2022/12/22 04:31:11;;;;;;;20.70;5.07;;;7.90;99.90;;;;;;5024343;28;20463;-44
2022/12/22 04:33:36;;;;;;;13.32;5.25;;;7.90;99.90;;;;;;5024228;28;20036;-50
2022/12/22 04:36:02;;;;;;;12.63;4.75;;;7.90;99.90;;;;;;5021997;28;20036;-45
2022/12/22 04:38:28;;;;;;;22.67;5.15;;;7.90;99.90;;;;;;5029601;28;20021;-47
2022/12/22 04:40:53;;;;;;;30.90;5.30;;;7.90;99.90;;;;;;5030282;28;20079;-52
2022/12/22 04:43:19;;;;;;;17.13;5.85;;;7.90;99.90;;;;;;5030398;28;20067;-44
2022/12/22 04:45:44;;;;;;;12.60;5.40;;;7.90;99.90;;;;;;5030406;28;20022;-44
2022/12/22 04:48:10;;;;;;;28.40;6.00;;;7.90;99.90;;;;;;5030495;28;20108;-45
2022/12/22 04:50:36;;;;;;;15.65;5.63;;;7.90;99.90;;;;;;5030447;28;20026;-44
2022/12/22 04:53:01;;;;;;;28.08;5.60;;;7.90;99.90;;;;;;5030643;28;20400;-43
2022/12/22 04:55:27;;;;;;;12.68;5.18;;;7.90;99.90;;;;;;5030624;28;20121;-45
2022/12/22 04:57:53;;;;;;;13.23;5.18;;;7.90;99.90;;;;;;5030326;28;20419;-43
2022/12/22 05:00:19;;;;;;;18.33;5.10;;;7.90;99.90;;;;;;5030430;28;20037;-43
2022/12/22 05:02:44;;;;;;;14.13;4.63;;;7.90;99.90;;;;;;5030448;28;20017;-43
2022/12/22 05:05:10;;;;;;;22.58;4.35;;;7.80;99.90;;;;;;5030005;28;20056;-50
2022/12/22 05:07:36;;;;;;;11.55;4.57;;;7.80;99.90;;;;;;5030241;28;20061;-51
2022/12/22 05:10:03;;;;;;;22.98;4.82;;;7.80;99.90;;;;;;5030473;28;20033;-50
2022/12/22 05:15:13;;;;;;;10.75;3.17;;;7.80;99.90;;;;;;5030413;28;20060;-47
2022/12/22 05:17:39;;;;;;;12.38;3.85;;;7.80;99.90;;;;;;5030275;28;20026;-42
2022/12/22 05:20:05;;;;;;;8.07;3.30;;;7.80;99.90;;;;;;5032219;28;20604;-43
2022/12/22 05:22:31;;;;;;;8.07;2.92;;;7.80;99.90;;;;;;5034035;28;20472;-43
2022/12/22 05:24:56;;;;;;;22.77;3.00;;;7.80;99.90;;;;;;5034050;28;20039;-43
2022/12/22 05:27:22;;;;;;;8.50;2.97;;;7.70;99.90;;;;;;5034043;28;20048;-43
2022/12/22 05:29:47;;;;;;;17.35;3.55;;;7.80;99.90;;;;;;5033794;28;20056;-43
2022/12/22 05:32:13;;;;;;;9.77;3.65;;;7.70;99.90;;;;;;5065917;28;20022;-44
2022/12/22 05:34:38;;;;;;;12.93;3.65;;;7.80;99.90;;;;;;5033924;28;20033;-42
2022/12/22 05:37:04;;;;;;;34.83;4.22;;;7.70;99.90;;;;;;5033336;28;20014;-43
2022/12/22 05:39:30;;;;;;;25.50;4.30;;;7.80;99.90;;;;;;5033514;28;20037;-45
2022/12/22 05:41:55;;;;;;;19.35;3.90;;;7.70;99.90;;;;;;5033660;28;20103;-46
2022/12/22 05:44:21;;;;;;;24.10;5.10;;;7.70;99.90;;;;;;5033573;28;20034;-43
2022/12/22 05:46:51;;;;;;;22.77;5.30;;;7.70;99.90;;;;;;5033619;28;20075;-43
2022/12/22 05:49:17;;;;;;;39.97;4.43;;;7.70;99.90;;;;;;5033397;28;20392;-44
2022/12/22 05:51:42;;;;;;;64.03;4.95;;;7.70;99.90;;;;;;5033823;28;20018;-43
2022/12/22 05:54:09;;;;;;;5.63;2.78;;;7.70;99.90;;;;;;5033689;28;20087;-43
2022/12/22 05:56:34;;;;;;;14.90;3.20;;;7.70;99.90;;;;;;5033529;28;20535;-44
2022/12/22 05:59:00;;;;;;;7.32;2.92;;;7.60;99.90;;;;;;5033453;28;20068;-46
2022/12/22 06:01:26;;;;;;;17.05;3.38;;;7.60;99.90;;;;;;5033099;28;20060;-51
2022/12/22 06:03:51;;;;;;;39.33;4.30;;;7.60;99.90;;;;;;5033252;28;20021;-43
2022/12/22 06:06:17;;;;;;;18.80;3.20;;;7.50;99.90;;;;;;5033105;28;20045;-47
2022/12/22 06:08:42;;;;;;;11.43;3.25;;;7.40;99.90;;;;;;5033113;28;20178;-45
2022/12/22 06:11:08;;;;;;;26.25;3.50;;;7.40;99.90;;;;;;5033362;28;20051;-47
2022/12/22 06:13:33;;;;;;;17.17;3.58;;;7.40;99.90;;;;;;5033081;28;20476;-48
2022/12/22 06:15:59;;;;;;;27.45;3.58;;;7.40;99.90;;;;;;5033091;28;20040;-43
2022/12/22 06:18:25;;;;;;;22.88;4.22;;;7.30;99.90;;;;;;5065179;28;20526;-54
2022/12/22 06:20:52;;;;;;;25.23;4.07;;;7.30;99.90;;;;;;5032988;28;20599;-49
2022/12/22 06:23:18;;;;;;;44.08;6.30;;;7.10;99.90;;;;;;5033043;28;20104;-45
2022/12/22 06:25:53;;;;;;;28.95;5.63;;;7.20;99.90;;;;;;5033020;28;20453;-44
2022/12/22 06:28:19;;;;;;;27.88;4.88;;;7.20;99.90;;;;;;5032981;28;20030;-47
2022/12/22 06:30:46;;;;;;;27.48;5.60;;;7.10;99.90;;;;;;5032142;28;20034;-48
2022/12/22 06:33:11;;;;;;;12.50;5.55;;;7.20;99.90;;;;;;5033085;28;20021;-50
2022/12/22 06:35:37;;;;;;;34.47;5.45;;;7.10;99.90;;;;;;5032481;28;20052;-60
2022/12/22 06:38:03;;;;;;;21.83;5.22;;;7.10;99.90;;;;;;5032279;28;20072;-54
2022/12/22 06:40:28;;;;;;;39.17;6.28;;;7.10;99.90;;;;;;5032353;28;20129;-43
2022/12/22 06:43:09;;;;;;;23.98;5.68;;;7.20;99.90;;;;;;5032613;28;20368;-43
2022/12/22 06:45:44;;;;;;;23.80;5.45;;;7.20;99.90;;;;;;5060472;28;20033;-43
2022/12/22 06:48:11;;;;;;;25.23;6.13;;;7.30;99.90;;;;;;5032436;28;20531;-42
2022/12/22 06:50:37;;;;;;;15.55;5.65;;;7.30;99.90;;;;;;5032534;28;20033;-45
2022/12/22 06:53:03;;;;;;;39.88;7.15;;;7.30;99.90;;;;;;5032456;28;20029;-45
2022/12/22 06:55:29;;;;;;;16.35;5.90;;;7.30;99.90;;;;;;5032375;28;20080;-44
2022/12/22 06:57:55;;;;;;;22.40;6.60;;;7.40;99.90;;;;;;5032471;28;20021;-49
2022/12/22 07:00:21;;;;;;;26.55;6.63;;;7.40;99.90;;;;;;5032333;28;20065;-45
2022/12/22 07:02:46;;;;;;;19.92;5.90;;;7.40;99.90;;;;;;5032295;28;20021;-51
2022/12/22 07:05:14;;;;;;;12.85;5.45;;;7.50;99.90;;;;;;5031916;28;20071;-54
2022/12/22 07:07:40;;;;;;;19.15;5.80;;;7.50;99.90;;;;;;5031960;28;20531;-47
2022/12/22 07:10:06;;;;;;;17.58;6.40;;;7.50;99.90;;;;;;5031998;28;20030;-45
2022/12/22 07:12:32;;;;;;;19.20;6.85;;;7.60;99.90;;;;;;5032068;28;20101;-43
2022/12/22 07:14:57;;;;;;;23.52;6.97;;;7.60;99.90;;;;;;5032094;28;20033;-45
2022/12/22 07:17:23;;;;;;;27.98;7.82;;;7.60;99.90;;;;;;5031961;28;20400;-47
2022/12/22 07:19:48;;;;;;;31.23;6.28;;;7.70;99.90;;;;;;5031825;28;20056;-44
2022/12/22 07:22:14;;;;;;;32.88;6.60;;;7.60;99.90;;;;;;5031786;28;20083;-43
2022/12/22 07:24:39;;;;;;;39.95;7.25;;;7.60;99.90;;;;;;5031832;28;20399;-44
2022/12/22 07:27:05;;;;;;;20.85;5.60;;;7.60;99.90;;;;;;5031628;28;20013;-46
2022/12/22 07:29:31;;;;;;;15.93;5.75;;;7.60;99.90;;;;;;5031740;28;20077;-44
2022/12/22 07:31:56;;;;;;;16.90;5.90;;;7.60;99.90;;;;;;5029570;28;20033;-44
2022/12/22 07:34:22;;;;;;;15.70;5.45;;;7.50;99.90;;;;;;5027779;28;20029;-51
2022/12/22 07:36:48;;;;;;;20.23;6.00;;;7.60;99.90;;;;;;5026429;28;20029;-46
2022/12/22 07:39:13;;;;;;;24.98;5.70;;;7.50;99.90;;;;;;5025050;28;20428;-50
2022/12/22 07:44:24;;;;;;;18.65;5.63;;;7.60;99.90;;;;;;5013920;28;20041;-52
2022/12/22 07:46:49;;;;;;;25.63;5.85;;;7.60;99.90;;;;;;5013852;28;20065;-49
2022/12/22 07:51:59;;;;;;;25.13;6.47;;;7.60;99.90;;;;;;5029756;28;20040;-46
2022/12/22 07:54:26;;;;;;;28.85;6.00;;;7.70;99.90;;;;;;5023432;28;20040;-45
2022/12/22 07:56:52;;;;;;;96.20;7.20;;;7.70;99.90;;;;;;5015624;28;20468;-48
2022/12/22 07:59:19;;;;;;;23.23;6.55;;;7.70;99.90;;;;;;5029317;28;20500;-48
2022/12/22 08:01:45;;;;;;;27.48;8.35;;;7.70;99.90;;;;;;5026928;28;20038;-41
2022/12/22 08:04:12;;;;;;;16.35;6.78;;;7.80;99.90;;;;;;5030347;28;20043;-50
2022/12/22 08:06:38;;;;;;;15.18;5.90;;;7.90;99.90;;;;;;5030143;28;20037;-47
2022/12/22 08:09:05;;;;;;;14.93;6.15;;;7.90;99.90;;;;;;5030395;28;20443;-48
2022/12/22 08:11:31;;;;;;;16.15;5.88;;;7.90;99.90;;;;;;5029750;28;20029;-52
2022/12/22 08:13:57;;;;;;;13.82;5.93;;;7.90;99.90;;;;;;5062034;28;20068;-50
2022/12/22 08:16:23;;;;;;;17.65;6.97;;;8.00;99.90;;;;;;5030145;28;20029;-45
2022/12/22 08:18:49;;;;;;;11.77;5.88;;;8.00;99.90;;;;;;5021332;28;20022;-44
2022/12/22 08:21:14;;;;;;;20.83;7.22;;;8.00;99.90;;;;;;5026878;28;20033;-52
2022/12/22 08:23:40;;;;;;;15.00;7.20;;;8.10;99.90;;;;;;5026276;28;20018;-46
2022/12/22 08:26:18;;;;;;;15.57;6.82;;;8.10;99.90;;;;;;5028042;28;20025;-50
2022/12/22 08:28:52;;;;;;;18.48;6.80;;;8.10;99.90;;;;;;5027823;28;20559;-53
2022/12/22 08:31:18;;;;;;;16.90;6.50;;;8.10;99.90;;;;;;5028390;28;20065;-41
2022/12/22 08:33:45;;;;;;;21.65;6.78;;;8.20;99.90;;;;;;5027901;28;20103;-43
2022/12/22 08:36:11;;;;;;;17.90;7.47;;;8.20;99.90;;;;;;5023348;28;20080;-46
2022/12/22 08:38:40;;;;;;;17.02;6.80;;;8.30;99.90;;;;;;5020379;28;20025;-49
2022/12/22 08:41:12;;;;;;;17.20;6.68;;;8.30;99.90;;;;;;5015541;28;20041;-52
2022/12/22 08:43:37;;;;;;;19.17;6.65;;;8.30;99.90;;;;;;5032635;28;20384;-49
2022/12/22 08:46:03;;;;;;;15.00;6.55;;;8.40;99.90;;;;;;5032478;28;20022;-43
2022/12/22 08:48:29;;;;;;;15.88;6.07;;;8.50;99.90;;;;;;5034366;28;20026;-46
2022/12/22 08:50:55;;;;;;;16.05;5.93;;;8.60;99.90;;;;;;5033218;28;20021;-42
2022/12/22 08:53:20;;;;;;;18.98;6.55;;;8.70;99.90;;;;;;5031879;28;20036;-46
2022/12/22 08:55:53;;;;;;;13.90;5.75;;;8.80;99.90;;;;;;5026935;28;20109;-47
2022/12/22 08:58:20;;;;;;;15.60;5.15;;;8.90;99.90;;;;;;5029519;28;20148;-51
2022/12/22 09:00:46;;;;;;;10.63;4.43;;;9.00;99.90;;;;;;5033439;28;20060;-52
2022/12/22 09:03:11;;;;;;;15.80;5.30;;;9.10;99.90;;;;;;5030269;28;20029;-55
2022/12/22 09:05:37;;;;;;;10.75;4.85;;;9.20;99.90;;;;;;5031116;28;20037;-47
2022/12/22 09:08:04;;;;;;;12.95;4.78;;;9.20;99.90;;;;;;5028520;28;20043;-55
2022/12/22 09:10:30;;;;;;;14.00;5.35;;;9.30;99.90;;;;;;5032610;28;20495;-44
2022/12/22 09:12:57;;;;;;;12.77;4.30;;;9.40;99.90;;;;;;5032475;28;20080;-42
2022/12/22 09:15:22;;;;;;;12.25;4.30;;;9.40;99.90;;;;;;5034177;28;20029;-40
2022/12/22 09:17:48;;;;;;;10.20;3.00;;;9.50;99.90;;;;;;5033341;28;20032;-44
2022/12/22 09:20:13;;;;;;;10.25;3.15;;;9.60;99.90;;;;;;5033528;28;20083;-43
2022/12/22 09:22:40;;;;;;;7.20;2.28;;;9.70;99.90;;;;;;5032897;28;20038;-39
2022/12/22 09:25:06;;;;;;;8.70;2.38;;;9.80;99.90;;;;;;5033099;28;20181;-39
2022/12/22 09:27:32;;;;;;;6.15;1.60;;;9.90;99.90;;;;;;5033549;28;20026;-44
2022/12/22 09:29:57;;;;;;;11.48;1.60;;;10.00;99.90;;;;;;5026462;28;20571;-41
2022/12/22 09:32:23;;;;;;;7.38;1.23;;;10.10;99.90;;;;;;5029830;28;20033;-43
2022/12/22 09:34:49;;;;;;;6.43;1.63;;;10.20;99.90;;;;;;5029289;28;20045;-40
2022/12/22 09:37:15;;;;;;;7.60;1.25;;;10.30;99.90;;;;;;5030707;28;20032;-42
2022/12/22 09:39:41;;;;;;;10.65;1.65;;;10.30;99.90;;;;;;5030984;28;20049;-45
2022/12/22 09:42:14;;;;;;;11.05;1.70;;;10.40;99.90;;;;;;5025860;28;20062;-42
2022/12/22 09:44:43;;;;;;;7.50;1.45;;;10.50;99.90;;;;;;5022354;28;20018;-45
2022/12/22 09:47:21;;;;;;;8.82;1.88;;;10.50;99.90;;;;;;5027258;28;20032;-47
2022/12/22 09:49:47;;;;;;;13.88;2.28;;;10.50;99.90;;;;;;5025378;28;20132;-40
2022/12/22 09:52:47;;;;;;;22.23;3.40;;;10.50;99.90;;;;;;5035938;28;20033;-40
2022/12/22 09:55:27;;;;;;;;;;;10.60;99.90;;;;;;5020995;28;20203;-41
2022/12/22 09:57:53;;;;;;;22.98;3.10;;;10.70;99.90;;;;;;5034150;28;19908;-43
2022/12/22 10:00:23;;;;;;;31.92;3.67;;;10.70;99.90;;;;;;5033595;28;20041;-43
2022/12/22 10:03:36;;;;;;;35.40;5.82;;;10.70;99.90;;;;;;5032013;28;20034;-43
2022/12/22 10:06:11;;;;;;;40.83;4.95;;;10.80;99.90;;;;;;5027054;28;20041;-44
2022/12/22 10:08:39;;;;;;;40.63;4.95;;;10.90;99.90;;;;;;5024273;28;20045;-46
2022/12/22 10:11:06;;;;;;;41.55;5.72;;;11.00;99.90;;;;;;5032478;28;20080;-41
2022/12/22 10:13:32;;;;;;;49.72;5.75;;;11.10;99.90;;;;;;5032430;28;20097;-41
2022/12/22 10:15:58;;;;;;;36.78;5.22;;;11.20;99.90;;;;;;5031269;28;20064;-41
2022/12/22 10:18:26;;;;;;;49.33;5.43;;;11.20;99.90;;;;;;5031504;28;20025;-40
2022/12/22 10:21:08;;;;;;;43.78;4.95;;;11.10;99.90;;;;;;5028329;28;20037;-41
2022/12/22 10:23:38;;;;;;;42.75;5.07;;;11.20;99.90;;;;;;5028413;28;20132;-41
2022/12/22 10:26:11;;;;;;;;;;;11.20;99.90;;;;;;5022117;28;20508;-44
2022/12/22 10:28:49;;;;;;;34.83;5.40;;;11.20;99.90;;;;;;5032578;28;19909;-44
2022/12/22 10:31:29;;;;;;;55.33;8.75;;;11.20;99.90;;;;;;5032256;28;20021;-45
2022/12/22 10:34:13;;;;;;;40.38;4.65;;;11.20;99.90;;;;;;5027333;28;20030;-40
2022/12/22 10:36:40;;;;;;;28.95;4.22;;;11.20;99.90;;;;;;5020389;28;20507;-46
2022/12/22 10:39:10;;;;;;;48.25;6.03;;;11.10;99.90;;;;;;5014988;28;20082;-40
2022/12/22 10:41:43;;;;;;;34.03;4.75;;;11.10;99.90;;;;;;5016193;28;20132;-47
2022/12/22 10:44:20;;;;;;;34.42;5.13;;;11.10;99.90;;;;;;5015460;28;20030;-40
2022/12/22 10:46:49;;;;;;;35.97;6.13;;;11.10;99.90;;;;;;5023964;28;20026;-40
2022/12/22 10:49:21;;;;;;;34.22;5.60;;;11.10;99.90;;;;;;5025935;28;20037;-39
2022/12/22 10:51:52;;;;;;;49.47;6.18;;;11.20;99.90;;;;;;5027630;28;20025;-41
2022/12/22 10:54:29;;;;;;;49.30;6.38;;;11.20;99.90;;;;;;5030677;28;20032;-41
2022/12/22 10:56:59;;;;;;;45.30;5.60;;;11.20;99.90;;;;;;5022879;28;20033;-40
2022/12/22 10:59:25;;;;;;;45.72;5.60;;;11.20;99.90;;;;;;5011326;28;20030;-40
2022/12/22 11:01:51;;;;;;;37.97;5.43;;;11.20;99.90;;;;;;5028802;28;20037;-46
2022/12/22 11:04:24;;;;;;;38.03;5.85;;;11.20;99.90;;;;;;5027586;28;20040;-40
2022/12/22 11:06:51;;;;;;;30.50;5.05;;;11.20;99.90;;;;;;5025413;28;20029;-53
2022/12/22 11:09:17;;;;;;;36.15;5.32;;;11.20;99.90;;;;;;5028424;28;20099;-44
2022/12/22 11:11:46;;;;;;;49.42;5.63;;;11.10;99.90;;;;;;5025496;28;20108;-40
2022/12/22 11:14:27;;;;;;;52.43;7.70;;;11.10;99.90;;;;;;5027117;28;20049;-42
2022/12/22 11:17:04;;;;;;;48.45;6.53;;;11.10;99.90;;;;;;5029075;28;20247;-48
2022/12/22 11:19:39;;;;;;;48.92;5.85;;;11.20;99.90;;;;;;5018254;28;20026;-41
2022/12/22 11:22:44;;;;;;;54.08;6.40;;;11.20;99.90;;;;;;5013967;28;20040;-41
2022/12/22 11:25:33;;;;;;;59.72;6.65;;;11.20;99.90;;;;;;5027077;28;20399;-41
2022/12/22 11:28:14;;;;;;;49.70;6.68;;;11.30;99.90;;;;;;5028806;28;20032;-40
2022/12/22 11:30:48;;;;;;;46.38;5.72;;;11.40;99.90;;;;;;5031211;28;20021;-44
2022/12/22 11:33:52;;;;;;;43.22;6.78;;;11.40;99.90;;;;;;5038678;28;20025;-41
2022/12/22 11:36:54;;;;;;;37.28;5.50;;;11.40;99.90;;;;;;5032398;28;20034;-41
2022/12/22 11:39:27;;;;;;;54.78;5.90;;;11.40;99.90;;;;;;5028354;28;20188;-49
2022/12/22 11:42:01;;;;;;;42.90;6.00;;;11.40;99.90;;;;;;5022423;28;20438;-53
2022/12/22 11:45:02;;;;;;;43.78;6.72;;;11.40;99.90;;;;;;5030177;28;20496;-37
2022/12/22 11:47:49;;;;;;;37.17;5.10;;;11.40;99.90;;;;;;5030708;28;20071;-49
2022/12/22 11:50:27;;;;;;;36.90;5.18;;;11.30;99.90;;;;;;5025392;28;20036;-45
2022/12/22 11:53:20;;;;;;;45.90;5.18;;;11.40;99.90;;;;;;5032808;28;20056;-39
2022/12/22 11:56:17;;;;;;;35.55;4.55;;;11.40;99.90;;;;;;5031127;28;20060;-43
2022/12/22 11:58:45;;;;;;;55.25;5.05;;;11.40;99.90;;;;;;5028696;28;20033;-46
2022/12/22 12:01:47;;;;;;;47.60;6.15;;;11.40;99.90;;;;;;5030080;28;20048;-46
2022/12/22 12:04:34;;;;;;;63.75;8.20;;;11.50;99.90;;;;;;5024871;28;20037;-44
2022/12/22 12:07:03;;;;;;;63.53;7.78;;;11.50;99.90;;;;;;5026632;28;20091;-42
2022/12/22 12:10:06;;;;;;;61.33;7.40;;;11.50;99.90;;;;;;5029852;28;20053;-39
2022/12/22 12:12:49;;;;;;;63.00;7.53;;;11.50;99.90;;;;;;5028436;28;20106;-40
2022/12/22 12:15:18;;;;;;;64.45;8.63;;;11.50;99.90;;;;;;5018050;28;20038;-43
2022/12/22 12:18:22;;;;;;;63.10;9.50;;;11.50;99.90;;;;;;5016791;28;20489;-42
2022/12/22 12:21:29;;;;;;;59.05;8.25;;;11.50;99.90;;;;;;5023079;28;20052;-45
2022/12/22 12:24:42;;;;;;;59.50;8.23;;;11.60;99.90;;;;;;5014946;28;20117;-40
2022/12/22 12:27:25;;;;;;;66.88;8.85;;;11.70;99.90;;;;;;5027416;28;20026;-44
2022/12/22 12:30:34;;;;;;;73.43;9.18;;;11.70;99.90;;;;;;5027577;28;20034;-40
2022/12/22 12:33:14;;;;;;;61.72;8.18;;;11.70;99.90;;;;;;4954313;28;20048;-40
2022/12/22 12:36:16;;;;;;;63.63;8.43;;;11.70;99.90;;;;;;4963970;28;20027;-40
2022/12/22 12:38:47;;;;;;;47.17;7.35;;;11.70;99.90;;;;;;5006830;28;20041;-40
2022/12/22 12:41:37;;;;;;;50.25;6.47;;;11.70;99.90;;;;;;5025637;28;20044;-43
2022/12/22 12:44:03;;;;;;;;;;;11.70;99.90;;;;;;5027027;28;20025;-44
2022/12/22 12:46:47;;;;;;;40.03;5.30;;;11.70;99.90;;;;;;5025854;28;20421;-41
2022/12/22 12:49:34;;;;;;;42.28;6.53;;;11.60;99.90;;;;;;5028280;28;20030;-49
2022/12/22 12:52:02;;;;;;;39.55;6.07;;;11.60;99.90;;;;;;5023509;28;20022;-44
2022/12/22 12:54:39;;;;;;;44.33;6.85;;;11.60;99.90;;;;;;5026089;28;20025;-43
2022/12/22 12:57:25;;;;;;;40.75;6.78;;;11.60;99.90;;;;;;5029819;28;20017;-47
2022/12/22 12:59:56;;;;;;;49.05;7.30;;;11.70;99.90;;;;;;5029586;28;20017;-42
2022/12/22 13:02:31;;;;;;;39.35;6.50;;;11.60;99.90;;;;;;5028765;28;20687;-43
2022/12/22 13:05:12;;;;;;;48.08;7.40;;;11.60;99.90;;;;;;5029315;28;20029;-40
2022/12/22 13:08:11;;;;;;;47.85;7.70;;;11.60;99.90;;;;;;5029504;28;20045;-42
2022/12/22 13:10:44;;;;;;;52.33;7.82;;;11.60;99.90;;;;;;5017782;28;20069;-39
2022/12/22 13:13:33;;;;;;;53.83;8.02;;;11.60;99.90;;;;;;5028566;28;20033;-42
2022/12/22 13:15:59;;;;;;;61.60;8.43;;;11.60;99.90;;;;;;5029361;28;20045;-47
2022/12/22 13:18:24;;;;;;;54.83;7.95;;;11.60;99.90;;;;;;5028403;28;20029;-43
2022/12/22 13:20:57;;;;;;;58.40;7.85;;;11.70;99.90;;;;;;5029785;28;20048;-41
2022/12/22 13:23:27;;;;;;;59.42;7.82;;;11.60;99.90;;;;;;5028328;28;20132;-45
2022/12/22 13:25:58;;;;;;;62.85;7.45;;;11.60;99.90;;;;;;5029353;28;20071;-41
2022/12/22 13:28:25;;;;;;;64.47;8.90;;;11.60;99.90;;;;;;5018904;28;20044;-40
2022/12/22 13:30:56;;;;;;;65.38;8.05;;;11.60;99.90;;;;;;5015155;28;20077;-43
2022/12/22 13:33:28;;;;;;;65.55;7.78;;;11.50;99.90;;;;;;5021086;28;20018;-40
2022/12/22 13:35:55;;;;;;;55.60;7.30;;;11.50;99.90;;;;;;5021871;28;20033;-48
2022/12/22 13:38:30;;;;;;;53.97;7.32;;;11.40;99.90;;;;;;5011538;28;20026;-41
2022/12/22 13:40:58;;;;;;;51.17;6.82;;;11.40;99.90;;;;;;5044719;28;20030;-40
2022/12/22 13:43:26;;;;;;;61.42;7.80;;;11.40;99.90;;;;;;5014922;28;20026;-41
2022/12/22 13:45:54;;;;;;;55.67;6.95;;;11.30;99.90;;;;;;5015730;28;20033;-41
2022/12/22 13:48:31;;;;;;;52.95;8.00;;;11.30;99.90;;;;;;5014877;28;20117;-40
2022/12/22 13:51:00;;;;;;;47.28;6.78;;;11.30;99.90;;;;;;5028885;28;20120;-40
2022/12/22 13:53:31;;;;;;;58.30;7.68;;;11.30;99.90;;;;;;5033572;28;20512;-40
2022/12/22 13:55:57;;;;;;;69.85;8.40;;;11.30;99.90;;;;;;5033611;28;20025;-41
2022/12/22 13:58:35;;;;;;;48.88;6.65;;;11.30;99.90;;;;;;5065202;28;20021;-40
2022/12/22 14:01:10;;;;;;;45.97;6.88;;;11.30;99.90;;;;;;5027999;28;20090;-41
2022/12/22 14:04:06;;;;;;;54.70;7.80;;;11.30;99.90;;;;;;5030135;28;20144;-41
2022/12/22 14:06:36;;;;;;;61.50;8.02;;;11.30;99.90;;;;;;5029683;28;20033;-44
2022/12/22 14:09:11;;;;;;;72.28;9.95;;;11.30;99.90;;;;;;5031427;28;20151;-39
2022/12/22 14:11:36;;;;;;;66.43;8.65;;;11.30;99.90;;;;;;5029865;28;20041;-40
2022/12/22 14:14:07;;;;;;;56.13;7.53;;;11.30;99.90;;;;;;5031443;28;20439;-40
2022/12/22 14:16:33;;;;;;;56.75;7.25;;;11.30;99.90;;;;;;5030453;28;20044;-43
2022/12/22 14:18:59;;;;;;;48.47;6.72;;;11.30;99.90;;;;;;5030832;28;20025;-44
2022/12/22 14:21:25;;;;;;;53.08;7.18;;;11.30;99.90;;;;;;5031142;28;20033;-40
2022/12/22 14:23:51;;;;;;;54.33;7.53;;;11.40;99.90;;;;;;5029456;28;20056;-40
2022/12/22 14:26:25;;;;;;;49.45;6.80;;;11.40;99.90;;;;;;5029843;28;20030;-40
2022/12/22 14:28:53;;;;;;;44.65;6.47;;;11.40;99.90;;;;;;5032649;28;21147;-40
2022/12/22 14:31:19;;;;;;;57.88;7.55;;;11.40;99.90;;;;;;5033759;28;20549;-41
2022/12/22 14:34:22;;;;;;;61.28;7.53;;;11.40;99.90;;;;;;5032044;28;20018;-40
2022/12/22 14:36:50;;;;;;;61.88;7.68;;;11.40;99.90;;;;;;5032712;28;20453;-40
2022/12/22 14:39:31;;;;;;;71.22;8.93;;;11.30;99.90;;;;;;5042899;28;20037;-40
2022/12/22 14:42:01;;;;;;;73.40;8.52;;;11.30;99.90;;;;;;5036896;28;20044;-50
2022/12/22 14:44:28;;;;;;;51.00;7.35;;;11.30;99.90;;;;;;5048549;28;20187;-47
2022/12/22 14:47:15;;;;;;;55.40;6.70;;;11.30;99.90;;;;;;5044551;28;20024;-49
2022/12/22 14:49:57;;;;;;;56.45;7.22;;;11.30;99.90;;;;;;5031412;28;20032;-42
2022/12/22 14:52:48;;;;;;;53.70;7.93;;;11.30;99.90;;;;;;5031361;28;20045;-43
2022/12/22 14:55:35;;;;;;;54.90;9.02;;;11.30;99.90;;;;;;5024705;28;20071;-47
2022/12/22 14:58:14;;;;;;;46.20;7.13;;;11.30;99.90;;;;;;5034125;28;20026;-44
2022/12/22 15:00:42;;;;;;;61.17;7.50;;;11.30;99.90;;;;;;5030434;28;20120;-40
2022/12/22 15:03:30;;;;;;;50.53;7.85;;;11.30;99.90;;;;;;5026186;28;20181;-47
2022/12/22 15:05:55;;;;;;;56.70;8.35;;;11.30;99.90;;;;;;5035675;28;20049;-41
2022/12/22 15:08:42;;;;;;;49.25;7.72;;;11.30;99.90;;;;;;5032930;28;20069;-46
2022/12/22 15:11:25;;;;;;;47.92;8.25;;;11.30;99.90;;;;;;5021158;28;20095;-42
2022/12/22 15:13:51;;;;;;;53.35;7.38;;;11.30;99.90;;;;;;5019114;28;20025;-40
2022/12/22 15:16:21;;;;;;;42.85;7.10;;;11.30;99.90;;;;;;5018949;28;20072;-43
2022/12/22 15:18:48;;;;;;;40.47;6.55;;;11.30;99.90;;;;;;5035089;28;20037;-46
2022/12/22 15:21:16;;;;;;;39.05;5.97;;;11.30;99.90;;;;;;5031611;28;20527;-44
2022/12/22 15:23:42;;;;;;;39.80;7.28;;;11.30;99.90;;;;;;5034022;28;20021;-48
2022/12/22 15:26:07;;;;;;;44.28;6.80;;;11.30;99.90;;;;;;5031566;28;20076;-46
2022/12/22 15:28:33;;;;;;;35.30;7.43;;;11.30;99.90;;;;;;5019256;28;20048;-45
2022/12/22 15:31:00;;;;;;;44.33;8.95;;;11.30;99.90;;;;;;5029398;28;20036;-49
2022/12/22 15:33:26;;;;;;;49.65;10.73;;;11.30;99.90;;;;;;5019028;28;20443;-41
2022/12/22 15:35:51;;;;;;;49.22;12.52;;;11.30;99.90;;;;;;5015218;28;20075;-40
2022/12/22 15:38:21;;;;;;;45.58;10.07;;;11.20;99.90;;;;;;5016559;28;20038;-44
2022/12/22 15:40:47;;;;;;;50.58;9.27;;;11.20;99.90;;;;;;5016229;28;20038;-46
2022/12/22 15:43:13;;;;;;;50.35;7.85;;;11.20;99.90;;;;;;5039258;28;20098;-48
2022/12/22 15:45:39;;;;;;;51.28;7.32;;;11.20;99.90;;;;;;5020615;28;20036;-41
2022/12/22 15:48:12;;;;;;;60.78;9.07;;;11.20;99.90;;;;;;5034346;28;20026;-41
2022/12/22 15:50:42;;;;;;;45.92;7.88;;;11.10;99.90;;;;;;5018925;28;20030;-42
2022/12/22 15:53:14;;;;;;;54.38;7.65;;;11.10;99.90;;;;;;5031354;28;20052;-49
2022/12/22 15:55:47;;;;;;;57.33;8.93;;;11.10;99.90;;;;;;5030274;28;20030;-44
2022/12/22 15:58:17;;;;;;;48.75;6.45;;;11.10;99.90;;;;;;5028393;28;20377;-43
2022/12/22 16:00:43;;;;;;;47.33;5.60;;;11.00;99.90;;;;;;5023191;28;20117;-42
2022/12/22 16:03:11;;;;;;;38.72;5.95;;;11.00;99.90;;;;;;5016729;28;20030;-40
2022/12/22 16:05:37;;;;;;;50.28;7.93;;;11.00;99.90;;;;;;5015736;28;20409;-50
2022/12/22 16:08:09;;;;;;;41.38;6.32;;;11.00;99.90;;;;;;5016838;28;20080;-45
2022/12/22 16:10:34;;;;;;;46.00;7.55;;;11.00;99.90;;;;;;5018943;28;20033;-47
2022/12/22 16:13:02;;;;;;;46.78;6.40;;;11.00;99.90;;;;;;5015649;28;20018;-42
2022/12/22 16:15:30;;;;;;;44.78;7.53;;;11.00;99.90;;;;;;5015452;28;20079;-46
2022/12/22 16:17:57;;;;;;;48.65;6.05;;;11.00;99.90;;;;;;5015466;28;20531;-44
2022/12/22 16:20:24;;;;;;;37.60;5.13;;;10.90;99.90;;;;;;5019607;28;20030;-48
2022/12/22 16:22:51;;;;;;;37.83;5.97;;;10.90;99.90;;;;;;5015646;28;20025;-42
2022/12/22 16:25:25;;;;;;;41.97;7.95;;;10.90;99.90;;;;;;5017547;28;20041;-43
2022/12/22 16:27:51;;;;;;;50.30;5.95;;;10.90;99.90;;;;;;5015407;28;20115;-44
2022/12/22 16:30:22;;;;;;;44.80;5.65;;;10.90;99.90;;;;;;5015547;28;20062;-42
2022/12/22 16:32:48;;;;;;;43.22;6.60;;;10.90;99.90;;;;;;5019173;28;20022;-40
2022/12/22 16:35:20;;;;;;;44.78;6.57;;;10.80;99.90;;;;;;5020288;28;20392;-51
2022/12/22 16:37:47;;;;;;;38.47;5.40;;;10.80;99.90;;;;;;5011301;28;20036;-40
2022/12/22 16:40:14;;;;;;;34.75;5.22;;;10.80;99.90;;;;;;5011047;28;20382;-40
2022/12/22 16:42:46;;;;;;;36.85;4.82;;;10.80;99.90;;;;;;5011323;28;20030;-55
2022/12/22 16:45:20;;;;;;;35.05;6.00;;;10.80;99.90;;;;;;5010844;28;20068;-52